Washington, Oklahoma
Current Conditions -  °F | °C
As of 6:15 AM on Thursday 18 Dec 2014 (Local Time) from KOUN Reporting Station
Haze Haze  
Wind Chill: 32°   Ceiling: 300
Heat Index: 36°   Visibility: 4mi
Dew Point: 36°   Wind: 5mph
Humidity: 100%   Direction: 130°SE
Pressure: 30.13"   Gusts: NA
Location:  35.06°N, 97.48°W
Report Text: KOUN 181215Z AUTO 13004KT 4SM BR BKN003 OVC008 02/02 A3013 RMK AO2 LTG DSNT NW
Loading
Personal Weather Stations






























Interactive Weather Map New forecast layout! Learn more

10-Day Weather Forecast

Advertisements
Track Severe Weather on mobile